createdAt,value
2018-05-10T00:01:39.147Z,27.60
2018-05-10T00:04:06.742Z,27.70
2018-05-10T00:06:34.360Z,27.70
2018-05-10T00:09:01.957Z,27.70
2018-05-10T00:11:30.304Z,27.70
2018-05-10T00:13:57.892Z,27.60
2018-05-10T00:16:26.244Z,27.70
2018-05-10T00:18:53.824Z,27.60
2018-05-10T00:21:22.171Z,27.70
2018-05-10T00:23:49.765Z,27.60
2018-05-10T00:26:18.127Z,27.70
2018-05-10T00:28:46.472Z,27.70
2018-05-10T00:31:14.064Z,27.60
2018-05-10T00:33:42.420Z,27.60
2018-05-10T00:36:10.000Z,27.60
2018-05-10T00:38:38.352Z,27.60
2018-05-10T00:41:05.940Z,27.60
2018-05-10T00:43:34.288Z,27.60
2018-05-10T00:48:36.672Z,27.60
2018-05-10T00:51:04.335Z,27.60
2018-05-10T00:53:33.197Z,27.60
2018-05-10T00:56:00.843Z,27.60
2018-05-10T00:58:28.428Z,27.60
2018-05-10T01:00:56.147Z,27.60
2018-05-10T01:03:23.820Z,27.60
2018-05-10T01:05:51.416Z,27.60
2018-05-10T01:08:19.572Z,27.60
2018-05-10T01:10:47.967Z,27.60
2018-05-10T01:13:15.544Z,27.60
2018-05-10T01:15:43.137Z,27.60
2018-05-10T01:18:10.734Z,27.60
2018-05-10T01:20:38.320Z,27.60
2018-05-10T01:23:05.918Z,27.60
2018-05-10T01:25:33.507Z,27.60
2018-05-10T01:28:01.095Z,27.60
2018-05-10T01:30:28.688Z,27.60
2018-05-10T01:32:56.289Z,27.60
2018-05-10T01:35:35.879Z,27.60
2018-05-10T01:38:04.069Z,27.60
2018-05-10T01:40:32.497Z,27.60
2018-05-10T01:43:00.097Z,27.60
2018-05-10T01:45:27.680Z,27.60
2018-05-10T01:47:55.284Z,27.60
2018-05-10T01:50:22.876Z,27.60
2018-05-10T01:52:50.460Z,27.60
2018-05-10T01:55:18.051Z,27.60
2018-05-10T01:57:45.661Z,27.60
2018-05-10T02:00:13.244Z,27.60
2018-05-10T02:02:40.862Z,27.60
2018-05-10T02:05:08.456Z,27.60
2018-05-10T02:07:36.041Z,27.60
2018-05-10T02:10:03.633Z,27.60
2018-05-10T02:12:31.219Z,27.60
2018-05-10T02:14:58.813Z,27.60
2018-05-10T02:17:26.408Z,27.60
2018-05-10T02:19:53.996Z,27.60
2018-05-10T02:22:21.600Z,27.60
2018-05-10T02:24:49.188Z,27.60
2018-05-10T02:27:16.786Z,27.60
2018-05-10T02:29:44.454Z,27.60
2018-05-10T02:32:11.977Z,27.60
2018-05-10T02:34:39.573Z,27.60
2018-05-10T02:37:07.164Z,27.60
2018-05-10T02:39:35.520Z,27.60
2018-05-10T02:42:03.108Z,27.50
2018-05-10T02:44:31.469Z,27.60
2018-05-10T02:46:59.060Z,27.50
2018-05-10T02:49:26.658Z,27.50
2018-05-10T02:51:54.244Z,27.50
2018-05-10T02:54:22.611Z,27.50
2018-05-10T02:56:50.198Z,27.50
2018-05-10T02:59:17.800Z,27.50
2018-05-10T03:01:45.404Z,27.60
2018-05-10T03:04:12.995Z,27.60
2018-05-10T03:06:40.581Z,27.60
2018-05-10T03:09:08.160Z,27.50
2018-05-10T03:11:35.752Z,27.60
2018-05-10T03:14:03.339Z,27.50
2018-05-10T03:16:30.931Z,27.50
2018-05-10T03:18:58.516Z,27.60
2018-05-10T03:21:26.877Z,27.50
2018-05-10T03:23:54.463Z,27.50
2018-05-10T03:26:22.807Z,27.50
2018-05-10T03:28:50.390Z,27.50
2018-05-10T03:31:18.744Z,27.50
2018-05-10T03:33:46.334Z,27.50
2018-05-10T03:36:14.692Z,27.50
2018-05-10T03:38:43.049Z,27.50
2018-05-10T03:41:10.640Z,27.50
2018-05-10T03:43:38.986Z,27.50
2018-05-10T03:46:06.565Z,27.50
2018-05-10T03:48:34.917Z,27.50
2018-05-10T03:51:02.504Z,27.50
2018-05-10T03:53:30.859Z,27.50
2018-05-10T03:55:58.456Z,27.50
2018-05-10T03:58:26.045Z,27.50
2018-05-10T04:00:53.644Z,27.50
2018-05-10T04:03:52.747Z,27.50
2018-05-10T04:06:32.192Z,27.50
2018-05-10T04:09:12.369Z,27.50
2018-05-10T04:11:39.965Z,27.50
2018-05-10T04:14:07.549Z,27.50
2018-05-10T04:16:35.139Z,27.50
2018-05-10T04:19:02.733Z,27.50
2018-05-10T04:21:30.329Z,27.50
2018-05-10T04:23:58.687Z,27.50
2018-05-10T04:26:26.287Z,27.50
2018-05-10T04:28:54.661Z,27.50
2018-05-10T04:31:23.041Z,27.50
2018-05-10T04:33:50.631Z,27.50
2018-05-10T04:36:18.227Z,27.50
2018-05-10T04:38:45.816Z,27.50
2018-05-10T04:41:13.408Z,27.50
2018-05-10T04:43:41.001Z,27.50
2018-05-10T04:46:08.593Z,27.50
2018-05-10T04:48:36.176Z,27.50
2018-05-10T04:51:03.772Z,27.50
2018-05-10T04:53:31.373Z,27.60
2018-05-10T04:55:58.958Z,27.50
2018-05-10T04:58:26.540Z,27.50
2018-05-10T05:00:54.132Z,27.50
2018-05-10T05:03:22.567Z,27.50
2018-05-10T05:05:50.079Z,27.50
2018-05-10T05:08:17.668Z,27.50
2018-05-10T05:10:45.269Z,27.50
2018-05-10T05:13:12.859Z,27.40
2018-05-10T05:15:40.451Z,27.40
2018-05-10T05:18:08.044Z,27.40
2018-05-10T05:20:35.633Z,27.40
2018-05-10T05:23:03.225Z,27.40
2018-05-10T05:25:30.807Z,27.50
2018-05-10T05:27:58.393Z,27.50
2018-05-10T05:30:26.772Z,27.50
2018-05-10T05:32:55.125Z,27.40
2018-05-10T05:35:22.704Z,27.40
2018-05-10T05:37:51.070Z,27.30
2018-05-10T05:40:18.652Z,27.30
2018-05-10T05:42:47.003Z,27.30
2018-05-10T05:45:14.599Z,27.30
2018-05-10T05:47:42.188Z,27.30
2018-05-10T05:50:09.771Z,27.30
2018-05-10T05:52:37.404Z,27.30
2018-05-10T05:55:05.017Z,27.20
2018-05-10T05:57:32.574Z,27.20
2018-05-10T06:00:00.929Z,27.20
2018-05-10T06:02:28.516Z,27.10
2018-05-10T06:04:56.110Z,27.20
2018-05-10T06:07:23.711Z,27.20
2018-05-10T06:09:51.296Z,27.20
2018-05-10T06:12:18.885Z,27.10
2018-05-10T06:14:46.469Z,27.20
2018-05-10T06:17:14.055Z,27.10
2018-05-10T06:19:42.412Z,27.10
2018-05-10T06:22:10.001Z,27.10
2018-05-10T06:24:38.356Z,27.10
2018-05-10T06:27:06.112Z,27.10
2018-05-10T06:29:33.698Z,27.10
2018-05-10T06:32:02.062Z,27.10
2018-05-10T06:34:30.416Z,27.20
2018-05-10T06:36:57.999Z,27.10
2018-05-10T06:39:26.352Z,27.20
2018-05-10T06:41:54.004Z,27.10
2018-05-10T06:44:22.389Z,27.20
2018-05-10T06:46:50.016Z,27.20
2018-05-10T06:49:17.590Z,27.20
2018-05-10T06:51:45.188Z,27.30
2018-05-10T06:54:13.555Z,27.30
2018-05-10T06:56:41.194Z,27.30
2018-05-10T06:59:08.738Z,27.30
2018-05-10T07:01:36.352Z,27.30
2018-05-10T07:04:04.700Z,27.30
2018-05-10T07:06:32.281Z,27.30
2018-05-10T07:09:00.628Z,27.30
2018-05-10T07:11:28.216Z,27.30
2018-05-10T07:13:56.563Z,27.30
2018-05-10T07:16:24.152Z,27.30
2018-05-10T07:18:52.499Z,27.30
2018-05-10T07:21:20.082Z,27.30
2018-05-10T07:23:48.427Z,27.20
2018-05-10T07:26:16.008Z,27.30
2018-05-10T07:28:43.592Z,27.30
2018-05-10T07:31:11.185Z,27.30
2018-05-10T07:33:38.774Z,27.30
2018-05-10T07:36:07.142Z,27.20
2018-05-10T07:38:34.734Z,27.20
2018-05-10T07:41:03.099Z,27.30
2018-05-10T07:43:31.461Z,27.30
2018-05-10T07:45:59.055Z,27.20
2018-05-10T07:48:26.655Z,27.30
2018-05-10T07:50:54.246Z,27.30
2018-05-10T07:53:21.835Z,27.30
2018-05-10T07:55:49.492Z,27.30
2018-05-10T07:58:17.852Z,27.20
2018-05-10T08:00:46.428Z,27.30
2018-05-10T08:03:14.024Z,27.20
2018-05-10T08:05:41.607Z,27.30
2018-05-10T08:08:09.204Z,27.30
2018-05-10T08:10:37.690Z,27.30
2018-05-10T08:13:05.324Z,27.40
2018-05-10T08:15:32.924Z,27.40
2018-05-10T08:18:00.519Z,27.50
2018-05-10T08:20:28.121Z,27.40
2018-05-10T08:22:56.503Z,27.50
2018-05-10T08:25:24.179Z,27.50
2018-05-10T08:27:51.771Z,27.60
2018-05-10T08:30:19.365Z,27.60
2018-05-10T08:32:46.971Z,27.60
2018-05-10T08:35:14.624Z,27.60
2018-05-10T08:37:42.232Z,27.60
2018-05-10T08:40:09.807Z,27.60
2018-05-10T08:42:37.400Z,27.60
2018-05-10T08:45:05.073Z,27.60
2018-05-10T08:47:32.641Z,27.60
2018-05-10T08:50:00.237Z,27.60
2018-05-10T08:52:27.817Z,27.60
2018-05-10T08:54:56.176Z,27.60
2018-05-10T08:57:23.756Z,27.60
2018-05-10T08:59:52.202Z,27.60
2018-05-10T09:02:20.311Z,27.60
2018-05-10T09:04:48.033Z,27.60
2018-05-10T09:07:15.744Z,27.60
2018-05-10T09:09:43.283Z,27.60
2018-05-10T09:12:11.635Z,27.60
2018-05-10T09:14:39.286Z,27.60
2018-05-10T09:17:07.398Z,27.70
2018-05-10T09:19:36.496Z,27.70
2018-05-10T09:22:04.325Z,27.60
2018-05-10T09:24:31.915Z,27.60
2018-05-10T09:27:00.264Z,27.70
2018-05-10T09:29:29.571Z,27.70
2018-05-10T09:31:59.177Z,27.70
2018-05-10T09:34:26.859Z,27.70
2018-05-10T09:36:54.458Z,27.70
2018-05-10T09:39:22.099Z,27.80
2018-05-10T09:41:50.408Z,27.70
2018-05-10T09:44:18.049Z,27.70
2018-05-10T09:46:45.603Z,27.70
2018-05-10T09:49:13.197Z,27.80
2018-05-10T09:51:40.784Z,27.70
2018-05-10T09:54:08.390Z,27.80
2018-05-10T09:56:35.975Z,27.80
2018-05-10T09:59:03.561Z,27.80
2018-05-10T10:01:31.144Z,27.80
2018-05-10T10:03:58.744Z,27.80
2018-05-10T10:06:26.324Z,27.80
2018-05-10T10:08:54.681Z,27.80
2018-05-10T10:11:22.269Z,27.80
2018-05-10T10:13:50.623Z,27.80
2018-05-10T10:16:18.211Z,27.80
2018-05-10T10:18:45.800Z,27.80
2018-05-10T10:21:13.385Z,27.90
2018-05-10T10:23:41.027Z,27.80
2018-05-10T10:26:08.608Z,27.80
2018-05-10T10:28:36.199Z,27.90
2018-05-10T10:31:04.548Z,27.90
2018-05-10T10:33:32.134Z,27.90
2018-05-10T10:36:00.484Z,27.90
2018-05-10T10:38:28.073Z,27.90
2018-05-10T10:40:56.416Z,27.90
2018-05-10T10:43:24.006Z,27.90
2018-05-10T10:45:52.358Z,27.90
2018-05-10T10:48:19.941Z,27.90
2018-05-10T10:50:47.528Z,27.90
2018-05-10T10:53:15.121Z,27.90
2018-05-10T10:55:42.700Z,27.90
2018-05-10T10:58:11.053Z,27.90
2018-05-10T11:00:38.643Z,27.90
2018-05-10T11:03:06.989Z,27.90
2018-05-10T11:05:34.575Z,27.90
2018-05-10T11:08:02.928Z,27.90
2018-05-10T11:10:30.517Z,27.90
2018-05-10T11:12:58.863Z,28.00
2018-05-10T11:15:26.447Z,28.00
2018-05-10T11:17:54.797Z,28.00
2018-05-10T11:20:22.375Z,28.00
2018-05-10T11:22:50.730Z,28.00
2018-05-10T11:25:18.319Z,28.00
2018-05-10T11:27:46.670Z,28.00
2018-05-10T11:30:14.251Z,28.00
2018-05-10T11:32:42.599Z,28.00
2018-05-10T11:35:10.185Z,28.00
2018-05-10T11:37:38.541Z,28.00
2018-05-10T11:40:06.129Z,28.00
2018-05-10T11:42:34.485Z,27.90
2018-05-10T11:45:02.068Z,27.90
2018-05-10T11:47:29.657Z,28.00
2018-05-10T11:49:57.241Z,28.00
2018-05-10T11:52:24.838Z,27.90
2018-05-10T11:54:53.189Z,27.90
2018-05-10T11:57:20.797Z,27.90
2018-05-10T11:59:48.377Z,27.90
2018-05-10T12:02:15.957Z,27.90
2018-05-10T12:04:43.555Z,27.90
2018-05-10T12:07:11.136Z,27.90
2018-05-10T12:09:38.731Z,27.90
2018-05-10T12:12:06.315Z,28.00
2018-05-10T12:14:34.664Z,28.00
2018-05-10T12:17:02.271Z,28.00
2018-05-10T12:19:29.857Z,28.00
2018-05-10T12:21:57.465Z,28.00
2018-05-10T12:24:25.813Z,28.00
2018-05-10T12:26:54.156Z,28.00
2018-05-10T12:29:21.740Z,28.00
2018-05-10T12:31:49.329Z,28.00
2018-05-10T12:34:16.917Z,28.00
2018-05-10T12:36:44.496Z,28.00
2018-05-10T12:39:12.080Z,28.00
2018-05-10T12:41:39.709Z,28.00
2018-05-10T12:44:07.273Z,28.00
2018-05-10T12:46:34.884Z,28.00
2018-05-10T12:49:02.467Z,28.00
2018-05-10T12:51:30.077Z,28.00
2018-05-10T12:53:57.660Z,28.00
2018-05-10T12:56:25.327Z,28.00
2018-05-10T12:58:52.849Z,28.00
2018-05-10T13:01:20.450Z,28.00
2018-05-10T13:03:48.796Z,28.00
2018-05-10T13:06:16.400Z,27.90
2018-05-10T13:08:43.992Z,27.90
2018-05-10T13:11:11.580Z,28.00
2018-05-10T13:13:39.166Z,28.00
2018-05-10T13:16:07.549Z,27.90
2018-05-10T13:18:35.883Z,27.90
2018-05-10T13:21:04.281Z,27.90
2018-05-10T13:23:32.636Z,27.90
2018-05-10T13:26:00.233Z,27.90
2018-05-10T13:28:28.590Z,27.90
2018-05-10T13:30:56.185Z,27.90
2018-05-10T13:33:23.768Z,27.90
2018-05-10T13:35:51.355Z,27.90
2018-05-10T13:38:18.963Z,27.90
2018-05-10T13:40:46.545Z,27.90
2018-05-10T13:43:14.529Z,27.90
2018-05-10T13:45:42.112Z,27.90
2018-05-10T13:48:10.470Z,27.90
2018-05-10T13:50:38.091Z,27.90
2018-05-10T13:53:05.754Z,27.90
2018-05-10T13:55:33.293Z,27.90
2018-05-10T13:58:00.890Z,27.90
2018-05-10T14:00:28.476Z,27.90
2018-05-10T14:02:56.056Z,27.90
2018-05-10T14:05:24.974Z,27.80
2018-05-10T14:07:52.565Z,27.90
2018-05-10T14:10:20.144Z,27.90
2018-05-10T14:12:47.744Z,27.80
2018-05-10T14:15:15.329Z,27.90
2018-05-10T14:17:42.929Z,27.90
2018-05-10T14:20:11.285Z,27.80
2018-05-10T14:22:38.875Z,27.80
2018-05-10T14:25:07.226Z,27.90
2018-05-10T14:27:34.811Z,27.80
2018-05-10T14:30:02.404Z,27.80
2018-05-10T14:32:30.013Z,27.80
2018-05-10T14:34:58.358Z,27.80
2018-05-10T14:37:26.549Z,27.80
2018-05-10T14:39:54.144Z,27.80
2018-05-10T14:42:21.732Z,27.80
2018-05-10T14:44:49.316Z,27.80
2018-05-10T14:47:16.912Z,27.80
2018-05-10T14:49:45.265Z,27.80
2018-05-10T14:52:12.851Z,27.80
2018-05-10T14:54:40.439Z,27.80
2018-05-10T14:57:08.033Z,27.80
2018-05-10T14:59:35.611Z,27.80
2018-05-10T15:02:03.982Z,27.80
2018-05-10T15:04:32.336Z,27.80
2018-05-10T15:06:59.934Z,27.80
2018-05-10T15:09:28.284Z,27.80
2018-05-10T15:11:55.886Z,27.80
2018-05-10T15:14:23.480Z,27.80
2018-05-10T15:16:51.080Z,27.70
2018-05-10T15:19:19.428Z,27.50
2018-05-10T15:21:47.194Z,27.50
2018-05-10T15:24:14.931Z,27.50
2018-05-10T15:26:42.698Z,27.40
2018-05-10T15:29:10.466Z,27.30
2018-05-10T15:31:38.362Z,27.30
2018-05-10T15:34:05.971Z,27.20
2018-05-10T15:36:33.765Z,27.20
2018-05-10T15:39:03.045Z,27.10
2018-05-10T15:41:30.832Z,27.10
2018-05-10T15:43:58.551Z,27.10
2018-05-10T15:46:26.855Z,27.10
2018-05-10T15:48:54.577Z,27.00
2018-05-10T15:51:22.299Z,27.00
2018-05-10T15:53:50.028Z,27.00
2018-05-10T15:56:17.737Z,27.00
2018-05-10T15:58:46.226Z,27.00
2018-05-10T16:01:14.724Z,27.00
2018-05-10T16:03:42.440Z,27.00
2018-05-10T16:06:10.185Z,27.10
2018-05-10T16:08:38.860Z,27.00
2018-05-10T16:11:06.574Z,27.00
2018-05-10T16:13:35.080Z,26.90
2018-05-10T16:16:02.802Z,26.90
2018-05-10T16:18:31.290Z,26.80
2018-05-10T16:20:59.779Z,26.80
2018-05-10T16:23:28.270Z,26.80
2018-05-10T16:25:56.008Z,26.80
2018-05-10T16:28:24.493Z,26.80
2018-05-10T16:30:52.964Z,26.80
2018-05-10T16:33:21.461Z,26.90
2018-05-10T16:35:49.967Z,26.90
2018-05-10T16:38:17.686Z,26.90
2018-05-10T16:40:46.179Z,26.90
2018-05-10T16:43:14.670Z,27.00
2018-05-10T16:45:42.428Z,26.90
2018-05-10T16:48:10.004Z,27.00
2018-05-10T16:50:37.592Z,27.00
2018-05-10T16:53:05.195Z,27.10
2018-05-10T16:55:33.543Z,27.10
2018-05-10T16:58:01.132Z,27.10
2018-05-10T17:00:28.720Z,27.10
2018-05-10T17:02:56.332Z,27.10
2018-05-10T17:05:24.679Z,27.10
2018-05-10T17:07:52.289Z,27.10
2018-05-10T17:10:19.871Z,27.10
2018-05-10T17:12:47.459Z,27.20
2018-05-10T17:15:15.052Z,27.20
2018-05-10T17:17:43.408Z,27.10
2018-05-10T17:20:11.175Z,27.10
2018-05-10T17:22:38.767Z,27.00
2018-05-10T17:25:06.349Z,26.80
2018-05-10T17:27:33.950Z,26.70
2018-05-10T17:30:01.533Z,26.60
2018-05-10T17:32:29.890Z,26.50
2018-05-10T17:34:57.472Z,26.50
2018-05-10T17:37:25.214Z,26.40
2018-05-10T17:39:52.978Z,26.40
2018-05-10T17:42:21.337Z,26.20
2018-05-10T17:44:48.929Z,26.20
2018-05-10T17:47:17.295Z,26.10
2018-05-10T17:49:44.879Z,26.00
2018-05-10T17:52:12.464Z,26.00
2018-05-10T17:54:40.056Z,26.00
2018-05-10T17:57:07.644Z,25.90
2018-05-10T17:59:35.223Z,25.90
2018-05-10T18:02:02.814Z,25.80
2018-05-10T18:04:30.393Z,25.80
2018-05-10T18:06:57.987Z,25.70
2018-05-10T18:09:25.609Z,25.70
2018-05-10T18:11:53.168Z,25.70
2018-05-10T18:14:20.767Z,25.70
2018-05-10T18:16:48.349Z,25.70
2018-05-10T18:19:15.933Z,25.70
2018-05-10T18:21:43.517Z,25.70
2018-05-10T18:24:11.873Z,26.00
2018-05-10T18:26:40.243Z,26.10
2018-05-10T18:29:08.182Z,26.10
2018-05-10T18:31:35.810Z,26.20
2018-05-10T18:34:04.155Z,26.40
2018-05-10T18:36:32.429Z,26.40
2018-05-10T18:39:00.016Z,26.50
2018-05-10T18:41:28.368Z,26.60
2018-05-10T18:43:55.996Z,26.60
2018-05-10T18:46:23.636Z,26.60
2018-05-10T18:48:51.171Z,26.70
2018-05-10T18:51:18.761Z,26.70
2018-05-10T18:53:46.352Z,26.80
2018-05-10T18:56:13.941Z,26.80
2018-05-10T18:58:42.307Z,26.80
2018-05-10T19:01:10.663Z,26.80
2018-05-10T19:03:38.265Z,26.80
2018-05-10T19:06:05.847Z,26.80
2018-05-10T19:08:33.445Z,26.90
2018-05-10T19:11:01.528Z,26.90
2018-05-10T19:13:29.821Z,26.90
2018-05-10T19:15:57.489Z,26.90
2018-05-10T19:18:25.092Z,27.00
2018-05-10T19:20:53.493Z,27.00
2018-05-10T19:23:21.051Z,27.00
2018-05-10T19:25:48.649Z,27.00
2018-05-10T19:28:16.240Z,27.00
2018-05-10T19:30:43.834Z,27.00
2018-05-10T19:33:11.421Z,27.00
2018-05-10T19:35:39.007Z,27.10
2018-05-10T19:38:06.618Z,27.10
2018-05-10T19:40:34.985Z,27.10
2018-05-10T19:43:02.570Z,27.10
2018-05-10T19:45:30.155Z,27.10
2018-05-10T19:47:57.770Z,27.10
2018-05-10T19:50:25.368Z,27.10
2018-05-10T19:52:52.961Z,27.10
2018-05-10T19:55:20.559Z,27.10
2018-05-10T19:57:48.149Z,27.10
2018-05-10T20:00:16.131Z,27.10
2018-05-10T20:02:43.784Z,27.10
2018-05-10T20:05:11.368Z,27.10
2018-05-10T20:07:38.958Z,27.10
2018-05-10T20:10:07.309Z,27.10
2018-05-10T20:12:34.893Z,27.20
2018-05-10T20:15:03.523Z,27.20
2018-05-10T20:17:31.104Z,27.10
2018-05-10T20:19:58.686Z,27.20
2018-05-10T20:22:27.046Z,27.20
2018-05-10T20:24:54.685Z,27.10
2018-05-10T20:27:22.264Z,27.10
2018-05-10T20:29:49.881Z,27.10
2018-05-10T20:32:17.495Z,27.10
2018-05-10T20:34:45.812Z,27.00
2018-05-10T20:37:13.400Z,27.00
2018-05-10T20:39:40.999Z,27.00
2018-05-10T20:42:08.781Z,27.00
2018-05-10T20:44:36.446Z,27.00
2018-05-10T20:47:04.760Z,27.10
2018-05-10T20:49:32.353Z,27.00
2018-05-10T20:52:00.700Z,27.10
2018-05-10T20:54:28.303Z,27.10
2018-05-10T20:56:55.886Z,27.10
2018-05-10T20:59:23.472Z,27.10
2018-05-10T21:01:59.189Z,27.10
2018-05-10T21:04:27.460Z,27.10
2018-05-10T21:06:56.339Z,27.10
2018-05-10T21:09:24.602Z,27.10
2018-05-10T21:11:52.697Z,27.10
2018-05-10T21:14:22.267Z,27.10
2018-05-10T21:16:52.374Z,27.10
2018-05-10T21:19:20.568Z,27.10
2018-05-10T21:21:48.761Z,27.10
2018-05-10T21:24:17.656Z,27.10
2018-05-10T21:26:46.523Z,27.10
2018-05-10T21:29:14.692Z,27.10
2018-05-10T21:31:42.781Z,27.10
2018-05-10T21:34:10.881Z,27.10
2018-05-10T21:36:39.056Z,27.10
2018-05-10T21:39:07.123Z,27.10
2018-05-10T21:41:35.214Z,27.10
2018-05-10T21:44:03.397Z,27.10
2018-05-10T21:46:31.580Z,27.10
2018-05-10T21:49:00.520Z,27.10
2018-05-10T21:51:28.685Z,27.10
2018-05-10T21:53:57.387Z,27.10
2018-05-10T21:56:25.898Z,27.10
2018-05-10T21:58:53.714Z,27.10
2018-05-10T22:01:21.540Z,27.00
2018-05-10T22:03:51.245Z,27.00
2018-05-10T22:06:20.722Z,27.00
2018-05-10T22:08:48.940Z,27.00
2018-05-10T22:11:18.222Z,26.90
2018-05-10T22:13:47.418Z,26.90
2018-05-10T22:16:15.542Z,26.90
2018-05-10T22:18:44.850Z,26.90
2018-05-10T22:21:13.460Z,26.90
2018-05-10T22:23:41.496Z,26.90
2018-05-10T22:26:09.378Z,26.90
2018-05-10T22:28:39.522Z,26.90
2018-05-10T22:31:08.435Z,26.90
2018-05-10T22:33:41.160Z,26.90
2018-05-10T22:36:10.186Z,26.90
2018-05-10T22:38:39.787Z,26.90
2018-05-10T22:41:07.787Z,26.90
2018-05-10T22:43:36.666Z,26.90
2018-05-10T22:46:06.782Z,26.90
2018-05-10T22:48:35.452Z,26.90
2018-05-10T22:51:03.845Z,26.90
2018-05-10T22:53:31.741Z,26.90
2018-05-10T22:56:00.890Z,26.90
2018-05-10T22:58:36.509Z,26.90
2018-05-10T23:01:04.855Z,26.90
2018-05-10T23:03:33.031Z,26.90
2018-05-10T23:06:03.380Z,26.90
2018-05-10T23:08:31.582Z,26.90
2018-05-10T23:10:59.601Z,26.90
2018-05-10T23:13:27.797Z,26.90
2018-05-10T23:15:55.917Z,26.90
2018-05-10T23:18:29.059Z,26.90
2018-05-10T23:20:59.680Z,26.90
2018-05-10T23:23:27.839Z,26.90
2018-05-10T23:25:56.101Z,26.90
2018-05-10T23:28:24.208Z,26.90
2018-05-10T23:30:52.384Z,26.90
2018-05-10T23:33:20.459Z,26.90
2018-05-10T23:35:49.084Z,26.90
2018-05-10T23:38:18.220Z,26.90
2018-05-10T23:40:46.488Z,26.90
2018-05-10T23:43:14.332Z,26.90
2018-05-10T23:45:43.687Z,26.90
2018-05-10T23:48:11.571Z,26.90
2018-05-10T23:50:39.879Z,26.90
2018-05-10T23:53:10.354Z,26.90
2018-05-10T23:55:41.701Z,26.90
2018-05-10T23:58:09.891Z,26.90
